オークランド の空港の天気 - METARとTAF

オークランド国際空港 ( NZAA / AKL ) - ニュージーランド オークランド|オークランド
飛行場実況気象(Metar)
観測時間10/20 07:00 NZDT (10/19 18:00 UTC)
風向・風速北北東 1m/s
視程10km以上
天気現象
なし
気温9℃
湿度100%
気圧1029hPa
METARNZAA 191800Z AUTO 02001KT 9999 NCD 09/09 Q1029 NOSIG
過去の天気等 Google飛行場航空写真 Wunderground天気予報

過去48時間のMETAR

飛行場予報(TAF)
発表時間: 10/20 06:08 NZDT (10/19 17:08 UTC)
予報対象時間: 20日7時 NZDT ~ 21日7時 NZDT
風向・風速不定 1m/s
視程10km以上
少しの雲 雲底高度 370m
全天の4割程度の雲 雲底高度 610m
20日7時 NZDT ~ 20日9時 NZDT に一時的に
全天の8割程度の雲 雲底高度 370m
20日13時 NZDT ~ 20日15時 NZDT に徐々に
風向・風速西南西 5m/s
20日18時 NZDT ~ 20日20時 NZDT に徐々に
風向・風速不定 1m/s
TAF NZAA 191708Z 1918/2018 VRB02KT 9999 FEW012 SCT020
TEMPO 1918/1920 BKN012
BECMG 2000/2002 25010KT
BECMG 2005/2007 VRB02KT